createdAt,value
2023-05-17T00:00:01.617Z,5.38
2023-05-17T00:02:29.661Z,5.40
2023-05-17T00:04:57.825Z,5.57
2023-05-17T00:07:27.189Z,4.78
2023-05-17T00:09:55.339Z,5.05
2023-05-17T00:12:23.960Z,4.93
2023-05-17T00:14:53.515Z,4.55
2023-05-17T00:17:21.599Z,5.20
2023-05-17T00:19:49.565Z,6.13
2023-05-17T00:22:17.510Z,5.72
2023-05-17T00:24:46.828Z,5.70
2023-05-17T00:27:14.806Z,5.90
2023-05-17T00:29:43.780Z,5.28
2023-05-17T00:32:12.456Z,5.53
2023-05-17T00:34:40.386Z,6.05
2023-05-17T00:37:08.405Z,6.22
2023-05-17T00:39:36.622Z,5.65
2023-05-17T00:42:07.524Z,5.50
2023-05-17T00:44:35.944Z,5.82
2023-05-17T00:47:03.992Z,5.95
2023-05-17T00:49:32.030Z,5.75
2023-05-17T00:52:00.818Z,5.53
2023-05-17T00:54:29.137Z,6.30
2023-05-17T00:56:59.518Z,6.05
2023-05-17T00:59:29.447Z,5.60
2023-05-17T01:01:57.294Z,5.72
2023-05-17T01:04:25.692Z,5.38
2023-05-17T01:06:53.846Z,6.85
2023-05-17T01:09:21.792Z,6.47
2023-05-17T01:11:57.072Z,6.32
2023-05-17T01:14:36.520Z,6.55
2023-05-17T01:17:08.400Z,6.10
2023-05-17T01:19:54.047Z,6.63
2023-05-17T01:22:29.330Z,6.30
2023-05-17T01:25:09.961Z,6.50
2023-05-17T01:27:42.394Z,6.00
2023-05-17T01:30:13.608Z,5.97
2023-05-17T01:32:43.291Z,6.30
2023-05-17T01:35:12.624Z,6.85
2023-05-17T01:37:40.760Z,6.07
2023-05-17T01:40:09.892Z,6.40
2023-05-17T01:42:41.218Z,6.55
2023-05-17T01:45:14.521Z,7.38
2023-05-17T01:47:46.870Z,6.72
2023-05-17T01:50:17.011Z,7.45
2023-05-17T01:52:51.441Z,6.28
2023-05-17T01:55:26.235Z,6.10
2023-05-17T01:57:57.618Z,6.78
2023-05-17T02:00:26.863Z,6.43
2023-05-17T02:02:55.051Z,6.25
2023-05-17T02:05:23.219Z,6.00
2023-05-17T02:07:51.281Z,6.95
2023-05-17T02:10:19.625Z,6.30
2023-05-17T02:12:47.734Z,6.63
2023-05-17T02:15:17.478Z,6.30
2023-05-17T02:17:46.007Z,6.95
2023-05-17T02:20:15.720Z,6.85
2023-05-17T02:22:43.621Z,7.28
2023-05-17T02:25:11.750Z,6.22
2023-05-17T02:27:41.396Z,6.72
2023-05-17T02:30:09.946Z,7.13
2023-05-17T02:32:39.460Z,6.03
2023-05-17T02:35:08.616Z,7.32
2023-05-17T02:37:36.693Z,7.00
2023-05-17T02:40:09.838Z,7.05
2023-05-17T02:42:38.270Z,7.15
2023-05-17T02:45:06.843Z,6.78
2023-05-17T02:47:35.070Z,6.80
2023-05-17T02:50:05.031Z,6.80
2023-05-17T02:52:33.217Z,6.53
2023-05-17T02:55:01.251Z,6.72
2023-05-17T02:57:29.403Z,7.13
2023-05-17T02:59:57.536Z,6.85
2023-05-17T03:02:26.127Z,7.65
2023-05-17T03:04:54.655Z,7.60
2023-05-17T03:07:24.884Z,7.38
2023-05-17T03:09:53.110Z,7.35
2023-05-17T03:12:21.454Z,7.57
2023-05-17T03:14:49.772Z,7.45
2023-05-17T03:17:17.769Z,7.05
2023-05-17T03:19:46.297Z,7.78
2023-05-17T03:22:14.565Z,7.28
2023-05-17T03:24:43.916Z,7.38
2023-05-17T03:27:11.916Z,7.85
2023-05-17T03:29:41.495Z,7.47
2023-05-17T03:32:09.996Z,6.85
2023-05-17T03:34:38.098Z,7.63
2023-05-17T03:37:06.608Z,7.18
2023-05-17T03:39:34.771Z,7.30
2023-05-17T03:42:04.613Z,7.47
2023-05-17T03:44:34.079Z,7.82
2023-05-17T03:47:02.142Z,7.70
2023-05-17T03:49:30.320Z,7.65
2023-05-17T03:51:58.909Z,8.20
2023-05-17T03:54:26.986Z,7.65
2023-05-17T03:56:55.581Z,7.72
2023-05-17T03:59:25.804Z,8.63
2023-05-17T04:01:53.970Z,7.75
2023-05-17T04:04:21.815Z,7.97
2023-05-17T04:06:49.881Z,8.15
2023-05-17T04:09:18.275Z,8.23
2023-05-17T04:11:46.340Z,8.25
2023-05-17T04:14:14.690Z,8.48
2023-05-17T04:16:44.082Z,8.23
2023-05-17T04:19:12.284Z,7.25
2023-05-17T04:21:41.172Z,8.02
2023-05-17T04:24:09.747Z,7.90
2023-05-17T04:26:37.657Z,7.85
2023-05-17T04:29:06.826Z,7.63
2023-05-17T04:31:34.812Z,7.68
2023-05-17T04:34:04.480Z,7.80
2023-05-17T04:36:32.437Z,8.63
2023-05-17T04:39:03.540Z,8.00
2023-05-17T04:41:33.204Z,7.72
2023-05-17T04:44:02.265Z,7.53
2023-05-17T04:46:35.864Z,8.52
2023-05-17T04:49:05.451Z,8.50
2023-05-17T04:51:33.471Z,7.47
2023-05-17T04:54:01.950Z,7.15
2023-05-17T04:56:32.557Z,7.28
2023-05-17T04:59:00.683Z,7.68
2023-05-17T05:01:29.471Z,7.95
2023-05-17T05:04:01.129Z,7.65
2023-05-17T05:06:31.451Z,8.07
2023-05-17T05:08:59.566Z,7.75
2023-05-17T05:11:28.122Z,8.20
2023-05-17T05:13:57.656Z,7.72
2023-05-17T05:16:26.389Z,8.45
2023-05-17T05:18:54.536Z,7.38
2023-05-17T05:21:23.512Z,7.53
2023-05-17T05:23:53.084Z,6.82
2023-05-17T05:26:21.514Z,6.25
2023-05-17T05:28:50.985Z,7.30
2023-05-17T05:31:20.101Z,6.95
2023-05-17T05:33:53.012Z,7.35
2023-05-17T05:36:21.175Z,6.35
2023-05-17T05:38:49.560Z,6.47
2023-05-17T05:41:19.154Z,5.95
2023-05-17T05:43:47.106Z,5.95
2023-05-17T05:46:15.591Z,5.97
2023-05-17T05:48:44.842Z,5.90
2023-05-17T05:51:13.616Z,5.43
2023-05-17T05:53:44.049Z,5.90
2023-05-17T05:56:12.108Z,5.00
2023-05-17T05:58:41.408Z,5.05
2023-05-17T06:01:10.840Z,4.88
2023-05-17T06:03:39.005Z,5.47
2023-05-17T06:06:07.770Z,5.00
2023-05-17T06:08:35.816Z,4.80
2023-05-17T06:11:03.851Z,5.13
2023-05-17T06:13:31.899Z,5.70
2023-05-17T06:16:01.311Z,4.40
2023-05-17T06:18:29.483Z,4.28
2023-05-17T06:20:57.575Z,4.30
2023-05-17T06:23:25.770Z,4.07
2023-05-17T06:25:53.729Z,4.00
2023-05-17T06:28:21.723Z,3.55
2023-05-17T06:30:49.873Z,3.85
2023-05-17T06:33:19.418Z,3.97
2023-05-17T06:35:56.079Z,3.92
2023-05-17T06:38:25.608Z,3.53
2023-05-17T06:40:54.163Z,3.22
2023-05-17T06:43:22.576Z,3.28
2023-05-17T06:45:50.693Z,3.88
2023-05-17T06:48:20.354Z,3.47
2023-05-17T06:50:48.536Z,3.50
2023-05-17T06:53:16.729Z,3.70
2023-05-17T06:55:45.034Z,4.00
2023-05-17T06:58:13.170Z,3.60
2023-05-17T07:00:41.240Z,3.63
2023-05-17T07:03:09.345Z,3.25
2023-05-17T07:05:39.246Z,3.45
2023-05-17T07:08:07.201Z,3.85
2023-05-17T07:10:35.500Z,3.65
2023-05-17T07:13:03.765Z,3.25
2023-05-17T07:15:31.880Z,3.40
2023-05-17T07:18:00.911Z,2.90
2023-05-17T07:20:29.324Z,3.45
2023-05-17T07:22:58.827Z,3.90
2023-05-17T07:25:27.654Z,3.25
2023-05-17T07:27:56.352Z,3.38
2023-05-17T07:30:24.468Z,3.58
2023-05-17T07:32:53.169Z,3.70
2023-05-17T07:35:26.270Z,3.35
2023-05-17T07:37:54.879Z,3.42
2023-05-17T07:40:24.223Z,3.45
2023-05-17T07:42:53.089Z,2.88
2023-05-17T07:45:21.883Z,3.42
2023-05-17T07:47:52.099Z,3.35
2023-05-17T07:50:20.895Z,3.10
2023-05-17T07:52:49.486Z,3.30
2023-05-17T07:55:17.685Z,2.60
2023-05-17T07:57:50.643Z,3.20
2023-05-17T08:00:19.909Z,3.05
2023-05-17T08:02:47.894Z,2.75
2023-05-17T08:05:16.046Z,3.08
2023-05-17T08:07:44.012Z,3.35
2023-05-17T08:10:12.428Z,2.78
2023-05-17T08:12:40.465Z,2.72
2023-05-17T08:15:10.550Z,3.15
2023-05-17T08:17:38.487Z,2.83
2023-05-17T08:20:08.713Z,2.20
2023-05-17T08:22:36.885Z,3.05
2023-05-17T08:25:05.271Z,3.38
2023-05-17T08:27:33.120Z,2.50
2023-05-17T08:30:01.097Z,2.45
2023-05-17T08:32:31.234Z,3.15
2023-05-17T08:34:59.303Z,2.60
2023-05-17T08:37:27.409Z,2.17
2023-05-17T08:39:55.635Z,2.70
2023-05-17T08:42:25.383Z,2.55
2023-05-17T08:44:54.908Z,2.38
2023-05-17T08:47:29.850Z,2.67
2023-05-17T08:50:00.626Z,2.65
2023-05-17T08:52:31.387Z,2.33
2023-05-17T08:55:01.076Z,2.60
2023-05-17T08:57:30.132Z,2.63
2023-05-17T09:00:00.435Z,2.50
2023-05-17T09:02:29.826Z,2.70
2023-05-17T09:04:59.915Z,2.92
2023-05-17T09:07:28.099Z,2.53
2023-05-17T09:09:56.654Z,2.55
2023-05-17T09:12:25.825Z,2.78
2023-05-17T09:14:53.937Z,2.20
2023-05-17T09:17:23.093Z,2.60
2023-05-17T09:19:52.076Z,2.63
2023-05-17T09:22:22.461Z,2.50
2023-05-17T09:24:50.815Z,2.33
2023-05-17T09:27:19.836Z,2.22
2023-05-17T09:29:48.445Z,2.17
2023-05-17T09:32:17.524Z,2.20
2023-05-17T09:34:48.362Z,2.28
2023-05-17T09:37:18.342Z,2.05
2023-05-17T09:39:48.510Z,1.95
2023-05-17T09:42:17.217Z,2.10
2023-05-17T09:44:49.894Z,1.95
2023-05-17T09:47:28.543Z,2.42
2023-05-17T09:50:00.674Z,1.80
2023-05-17T09:52:31.782Z,1.90
2023-05-17T09:55:01.885Z,1.92
2023-05-17T09:57:38.782Z,2.17
2023-05-17T10:00:10.851Z,1.85
2023-05-17T10:02:41.226Z,2.40
2023-05-17T10:05:12.475Z,1.80
2023-05-17T10:07:40.945Z,2.15
2023-05-17T10:10:12.250Z,2.00
2023-05-17T10:12:42.257Z,1.88
2023-05-17T10:15:11.914Z,1.92
2023-05-17T10:17:44.702Z,2.00
2023-05-17T10:20:14.955Z,1.90
2023-05-17T10:22:43.217Z,1.63
2023-05-17T10:25:13.484Z,2.00
2023-05-17T10:27:41.940Z,1.88
2023-05-17T10:30:11.737Z,1.92
2023-05-17T10:32:39.891Z,1.80
2023-05-17T10:35:11.924Z,1.80
2023-05-17T10:37:41.303Z,2.10
2023-05-17T10:40:13.784Z,2.13
2023-05-17T10:42:45.881Z,1.80
2023-05-17T10:45:14.945Z,2.30
2023-05-17T10:47:44.046Z,1.83
2023-05-17T10:50:13.315Z,6.72
2023-05-17T10:52:47.920Z,5.88
2023-05-17T10:55:19.882Z,2.95
2023-05-17T10:58:16.807Z,1.92
2023-05-17T11:00:47.484Z,1.92
2023-05-17T11:03:16.886Z,1.83
2023-05-17T11:05:46.392Z,1.85
2023-05-17T11:08:17.181Z,2.50
2023-05-17T11:11:15.357Z,2.47
2023-05-17T11:13:53.775Z,1.95
2023-05-17T11:16:28.853Z,2.13
2023-05-17T11:18:58.400Z,2.58
2023-05-17T11:21:29.855Z,2.25
2023-05-17T11:24:03.878Z,2.38
2023-05-17T11:26:35.257Z,2.30
2023-05-17T11:29:08.566Z,2.45
2023-05-17T11:31:38.197Z,2.20
2023-05-17T11:34:06.711Z,2.10
2023-05-17T11:36:50.509Z,2.10
2023-05-17T11:39:21.104Z,2.30
2023-05-17T11:41:50.640Z,2.22
2023-05-17T11:44:25.355Z,2.00
2023-05-17T11:46:54.580Z,2.05
2023-05-17T11:49:35.115Z,2.15
2023-05-17T11:52:04.344Z,2.47
2023-05-17T11:54:32.286Z,2.50
2023-05-17T11:57:00.921Z,2.50
2023-05-17T11:59:30.522Z,1.92
2023-05-17T12:01:58.458Z,2.40
2023-05-17T12:04:27.800Z,2.55
2023-05-17T12:06:56.730Z,2.10
2023-05-17T12:09:26.531Z,2.10
2023-05-17T12:11:54.483Z,2.80
2023-05-17T12:14:23.016Z,2.30
2023-05-17T12:16:56.657Z,2.60
2023-05-17T12:19:27.422Z,2.60
2023-05-17T12:21:55.396Z,2.60
2023-05-17T12:24:23.562Z,2.85
2023-05-17T12:26:51.690Z,2.35
2023-05-17T12:29:23.135Z,2.90
2023-05-17T12:31:54.011Z,2.50
2023-05-17T12:34:22.265Z,2.15
2023-05-17T12:36:50.758Z,2.45
2023-05-17T12:39:23.702Z,2.58
2023-05-17T12:41:52.581Z,2.25
2023-05-17T12:44:21.680Z,2.55
2023-05-17T12:46:54.100Z,2.25
2023-05-17T12:49:26.542Z,2.85
2023-05-17T12:51:54.848Z,2.83
2023-05-17T12:54:29.972Z,2.58
2023-05-17T12:56:58.382Z,2.30
2023-05-17T12:59:29.170Z,2.88
2023-05-17T13:01:58.514Z,2.70
2023-05-17T13:04:33.118Z,2.30
2023-05-17T13:07:03.491Z,3.03
2023-05-17T13:09:33.590Z,2.80
2023-05-17T13:12:03.524Z,2.90
2023-05-17T13:14:36.082Z,2.33
2023-05-17T13:17:04.902Z,2.63
2023-05-17T13:19:35.992Z,2.20
2023-05-17T13:22:04.740Z,2.40
2023-05-17T13:24:34.530Z,2.50
2023-05-17T13:27:02.826Z,2.42
2023-05-17T13:29:38.942Z,2.42
2023-05-17T13:32:09.407Z,2.83
2023-05-17T13:34:38.995Z,2.78
2023-05-17T13:37:11.145Z,2.45
2023-05-17T13:39:39.736Z,2.63
2023-05-17T13:42:08.576Z,2.72
2023-05-17T13:44:38.266Z,2.63
2023-05-17T13:47:07.028Z,2.67
2023-05-17T13:49:35.255Z,3.20
2023-05-17T13:52:08.927Z,2.55
2023-05-17T13:54:38.405Z,3.05
2023-05-17T13:57:06.854Z,3.22
2023-05-17T13:59:34.901Z,3.17
2023-05-17T14:02:04.318Z,5.22
2023-05-17T14:04:32.571Z,7.25
2023-05-17T14:07:00.386Z,3.53
2023-05-17T14:09:33.108Z,3.33
2023-05-17T14:12:01.419Z,5.18
2023-05-17T14:14:29.478Z,2.88
2023-05-17T14:16:57.806Z,3.05
2023-05-17T14:19:26.051Z,2.90
2023-05-17T14:21:54.268Z,3.05
2023-05-17T14:24:22.286Z,2.67
2023-05-17T14:26:51.733Z,2.50
2023-05-17T14:29:19.934Z,2.90
2023-05-17T14:31:47.877Z,2.50
2023-05-17T14:34:16.079Z,3.05
2023-05-17T14:36:44.165Z,3.00
2023-05-17T14:39:12.346Z,2.95
2023-05-17T14:41:41.181Z,2.80
2023-05-17T14:44:11.483Z,3.20
2023-05-17T14:46:39.516Z,6.57
2023-05-17T14:49:07.732Z,3.17
2023-05-17T14:51:35.962Z,3.53
2023-05-17T14:54:04.189Z,3.08
2023-05-17T14:56:32.249Z,3.63
2023-05-17T14:59:00.073Z,2.65
2023-05-17T15:01:29.692Z,3.03
2023-05-17T15:03:57.832Z,2.80
2023-05-17T15:06:26.660Z,3.40
2023-05-17T15:08:55.090Z,2.55
2023-05-17T15:11:23.709Z,2.70
2023-05-17T15:13:51.644Z,2.60
2023-05-17T15:16:19.841Z,2.88
2023-05-17T15:18:49.539Z,2.67
2023-05-17T15:21:19.214Z,2.65
2023-05-17T15:23:48.053Z,2.55
2023-05-17T15:26:15.903Z,3.13
2023-05-17T15:28:44.097Z,2.90
2023-05-17T15:31:12.095Z,3.03
2023-05-17T15:33:42.576Z,2.88
2023-05-17T15:36:13.180Z,2.75
2023-05-17T15:38:41.370Z,3.13
2023-05-17T15:41:13.127Z,2.53
2023-05-17T15:43:41.551Z,2.92
2023-05-17T15:46:09.726Z,3.17
2023-05-17T15:48:38.217Z,2.50
2023-05-17T15:51:06.682Z,3.10
2023-05-17T15:53:35.938Z,2.80
2023-05-17T15:56:03.971Z,2.97
2023-05-17T15:58:33.595Z,3.13
2023-05-17T16:01:04.042Z,2.75
2023-05-17T16:03:32.191Z,2.97
2023-05-17T16:06:00.534Z,2.58
2023-05-17T16:08:28.610Z,2.97
2023-05-17T16:10:59.338Z,3.30
2023-05-17T16:13:28.888Z,2.70
2023-05-17T16:15:58.278Z,2.83
2023-05-17T16:18:26.884Z,2.70
2023-05-17T16:21:03.190Z,2.50
2023-05-17T16:23:31.631Z,3.22
2023-05-17T16:26:00.907Z,2.85
2023-05-17T16:28:29.375Z,3.15
2023-05-17T16:31:02.102Z,2.70
2023-05-17T16:33:30.499Z,3.53
2023-05-17T16:35:58.871Z,3.15
2023-05-17T16:38:27.164Z,2.80
2023-05-17T16:40:55.572Z,2.75
2023-05-17T16:43:25.025Z,3.33
2023-05-17T16:45:53.169Z,2.83
2023-05-17T16:48:21.339Z,2.45
2023-05-17T16:50:49.786Z,2.70
2023-05-17T16:53:17.864Z,2.50
2023-05-17T16:55:45.952Z,2.70
2023-05-17T16:58:14.206Z,2.90
2023-05-17T17:00:43.518Z,2.70
2023-05-17T17:03:11.727Z,2.90
2023-05-17T17:05:39.984Z,3.25
2023-05-17T17:08:07.918Z,2.95
2023-05-17T17:10:37.156Z,2.72
2023-05-17T17:13:05.307Z,3.33
2023-05-17T17:15:34.004Z,3.58
2023-05-17T17:18:05.045Z,3.00
2023-05-17T17:20:33.334Z,3.28
2023-05-17T17:23:01.447Z,2.83
2023-05-17T17:25:29.646Z,3.40
2023-05-17T17:27:57.681Z,2.85
2023-05-17T17:30:25.974Z,2.70
2023-05-17T17:32:54.087Z,2.95
2023-05-17T17:35:23.624Z,3.13
2023-05-17T17:37:53.273Z,3.00
2023-05-17T17:40:21.653Z,3.08
2023-05-17T17:42:49.710Z,3.40
2023-05-17T17:45:17.497Z,3.22
2023-05-17T17:47:45.577Z,3.05
2023-05-17T17:50:13.536Z,3.22
2023-05-17T17:52:43.021Z,3.20
2023-05-17T17:55:13.206Z,3.50
2023-05-17T17:57:41.875Z,3.25
2023-05-17T18:00:12.030Z,3.20
2023-05-17T18:02:40.670Z,2.90
2023-05-17T18:05:09.799Z,2.70
2023-05-17T18:07:37.806Z,2.80
2023-05-17T18:10:08.448Z,2.88
2023-05-17T18:12:36.364Z,3.28
2023-05-17T18:15:05.196Z,2.88
2023-05-17T18:17:33.107Z,3.17
2023-05-17T18:20:01.309Z,2.65
2023-05-17T18:22:30.253Z,2.95
2023-05-17T18:24:58.251Z,2.95
2023-05-17T18:27:27.894Z,2.65
2023-05-17T18:29:55.965Z,3.03
2023-05-17T18:32:24.107Z,3.00
2023-05-17T18:34:52.062Z,2.40
2023-05-17T18:37:20.094Z,2.65
2023-05-17T18:39:48.029Z,2.70
2023-05-17T18:42:16.177Z,3.13
2023-05-17T18:44:45.393Z,2.53
2023-05-17T18:47:13.514Z,2.72
2023-05-17T18:49:45.015Z,2.15
2023-05-17T18:52:13.101Z,1.92
2023-05-17T18:54:41.007Z,2.92
2023-05-17T18:57:11.485Z,2.97
2023-05-17T18:59:39.391Z,2.47
2023-05-17T19:02:08.984Z,2.50
2023-05-17T19:04:37.738Z,3.00
2023-05-17T19:07:06.155Z,2.67
2023-05-17T19:09:34.691Z,2.58
2023-05-17T19:12:02.893Z,2.65
2023-05-17T19:14:32.167Z,2.80
2023-05-17T19:17:00.254Z,2.95
2023-05-17T19:19:31.176Z,2.60
2023-05-17T19:22:00.694Z,2.85
2023-05-17T19:24:28.650Z,2.70
2023-05-17T19:26:56.724Z,2.83
2023-05-17T19:29:27.187Z,2.17
2023-05-17T19:31:55.340Z,2.78
2023-05-17T19:34:23.591Z,2.60
2023-05-17T19:36:52.910Z,2.60
2023-05-17T19:39:21.334Z,2.97
2023-05-17T19:41:49.448Z,2.50
2023-05-17T19:44:17.385Z,2.15
2023-05-17T19:46:45.840Z,2.45
2023-05-17T19:49:13.942Z,2.40
2023-05-17T19:51:41.849Z,2.30
2023-05-17T19:54:11.263Z,2.50
2023-05-17T19:56:39.472Z,2.47
2023-05-17T19:59:07.427Z,2.65
2023-05-17T20:01:35.498Z,3.03
2023-05-17T20:04:03.857Z,2.75
2023-05-17T20:06:32.458Z,2.78
2023-05-17T20:09:00.540Z,2.75
2023-05-17T20:11:30.193Z,2.95
2023-05-17T20:13:58.546Z,2.53
2023-05-17T20:16:28.203Z,2.75
2023-05-17T20:18:58.199Z,2.85
2023-05-17T20:21:26.601Z,2.22
2023-05-17T20:24:01.022Z,2.67
2023-05-17T20:26:32.026Z,3.20
2023-05-17T20:29:00.413Z,2.55
2023-05-17T20:31:28.924Z,2.45
2023-05-17T20:33:57.071Z,2.58
2023-05-17T20:36:25.810Z,2.47
2023-05-17T20:38:54.238Z,2.35
2023-05-17T20:41:22.334Z,2.65
2023-05-17T20:43:51.946Z,2.92
2023-05-17T20:46:19.968Z,2.47
2023-05-17T20:48:49.834Z,3.00
2023-05-17T20:51:19.565Z,3.03
2023-05-17T20:53:47.883Z,2.22
2023-05-17T20:56:16.397Z,3.33
2023-05-17T20:58:44.267Z,2.45
2023-05-17T21:01:13.901Z,2.33
2023-05-17T21:03:43.465Z,3.20
2023-05-17T21:06:11.626Z,2.63
2023-05-17T21:08:40.232Z,3.35
2023-05-17T21:11:08.225Z,2.53
2023-05-17T21:13:36.350Z,2.53
2023-05-17T21:16:04.711Z,2.70
2023-05-17T21:18:34.125Z,2.95
2023-05-17T21:21:02.088Z,2.38
2023-05-17T21:23:29.986Z,2.85
2023-05-17T21:25:58.037Z,2.40
2023-05-17T21:28:25.924Z,2.53
2023-05-17T21:30:54.196Z,2.13
2023-05-17T21:33:22.124Z,2.70
2023-05-17T21:35:51.576Z,2.38
2023-05-17T21:38:19.553Z,2.65
2023-05-17T21:40:47.559Z,2.78
2023-05-17T21:43:15.904Z,3.13
2023-05-17T21:45:43.982Z,2.92
2023-05-17T21:48:11.980Z,2.95
2023-05-17T21:50:40.081Z,2.50
2023-05-17T21:53:09.462Z,2.78
2023-05-17T21:55:56.256Z,3.10
2023-05-17T21:58:25.196Z,3.10
2023-05-17T22:00:53.362Z,2.67
2023-05-17T22:03:21.494Z,3.00
2023-05-17T22:05:49.478Z,3.58
2023-05-17T22:08:18.718Z,4.32
2023-05-17T22:10:46.711Z,3.60
2023-05-17T22:13:16.813Z,3.00
2023-05-17T22:15:45.304Z,2.92
2023-05-17T22:18:13.932Z,2.92
2023-05-17T22:20:42.125Z,2.97
2023-05-17T22:23:10.340Z,2.72
2023-05-17T22:25:39.995Z,2.83
2023-05-17T22:28:07.986Z,3.00
2023-05-17T22:30:36.105Z,3.30
2023-05-17T22:33:03.858Z,3.08
2023-05-17T22:35:31.949Z,3.15
2023-05-17T22:37:59.979Z,2.95
2023-05-17T22:40:28.129Z,2.63
2023-05-17T22:42:59.307Z,2.72
2023-05-17T22:45:32.918Z,3.05
2023-05-17T22:50:34.677Z,2.60
2023-05-17T22:53:03.686Z,2.97
2023-05-17T22:55:31.958Z,2.72
2023-05-17T22:58:01.737Z,2.33
2023-05-17T23:00:29.599Z,2.78
2023-05-17T23:02:57.866Z,2.72
2023-05-17T23:05:25.966Z,2.92
2023-05-17T23:07:54.240Z,2.78
2023-05-17T23:10:22.513Z,2.97
2023-05-17T23:12:52.247Z,2.80
2023-05-17T23:15:22.140Z,3.05
2023-05-17T23:17:51.025Z,3.13
2023-05-17T23:20:20.062Z,3.08
2023-05-17T23:22:48.667Z,2.70
2023-05-17T23:25:16.801Z,3.20
2023-05-17T23:27:45.117Z,2.90
2023-05-17T23:30:13.522Z,3.22
2023-05-17T23:32:46.757Z,2.97
2023-05-17T23:35:14.851Z,3.13
2023-05-17T23:37:43.369Z,2.45
2023-05-17T23:40:12.838Z,3.10
2023-05-17T23:42:41.332Z,3.05
2023-05-17T23:45:09.943Z,2.50
2023-05-17T23:47:40.763Z,3.00
2023-05-17T23:50:12.193Z,2.60
2023-05-17T23:52:40.337Z,2.83
2023-05-17T23:55:09.080Z,2.20
2023-05-17T23:57:37.819Z,3.13
